Terminal Aerodrome Forecast
Issued by NWS

Home | Current Version | Previous Version | Text Only | Print | Product List | Glossary On
Versions: 1 2 3 4 5 6 7 8 9 10 11 12 13 14 15
000
FTUS43 KLSX 061700
TAFSUS
TAF
KSUS 061720Z 0618/0718 19012G22KT P6SM SCT050 BKN250
     FM070100 16005KT P6SM FEW080 BKN150
     FM071500 17013G23KT P6SM SCT050=

USA.gov is the U.S. government's official web portal to all federal, state and local government web resources and services.